Time;durP1;ratioP1;P1;durP2;ratioP2;P2;SDS_P1;SDS_P2;PMS_P1;PMS_P2;Temp;Humidity;BMP_temperature;BMP_pressure;BME280_temperature;BME280_humidity;BME280_pressure;Samples;Min_cycle;Max_cycle;Signal;HPM_P1;HPM_P2
2021/12/30 00:00:27;;;;;;;;;;;;;;;;;;5012926;28;19921;-73
2021/12/30 00:02:53;;;;;;;;;;;;;;;;;;5017347;28;19969;-75
2021/12/30 00:05:18;;;;;;;;;;;;;;;;;;5010162;28;20040;-71
2021/12/30 00:07:43;;;;;;;;;;;;;;;;;;5013712;28;19996;-71
2021/12/30 00:10:08;;;;;;;;;;;;;;;;;;5010566;28;19921;-77
2021/12/30 00:12:34;;;;;;;;;;;;;;;;;;5010309;28;19918;-67
2021/12/30 00:14:59;;;;;;;;;;;;;;;;;;5015251;28;20390;-73
2021/12/30 00:17:24;;;;;;;;;;;;;;;;;;5012979;28;19967;-65
2021/12/30 00:19:49;;;;;;;;;;;;;;;;;;5015536;28;19913;-74
2021/12/30 00:22:14;;;;;;;;;;;;;;;;;;5011478;28;19917;-65
2021/12/30 00:24:40;;;;;;;;;;;;;;;;;;5010213;28;19913;-70
2021/12/30 00:27:05;;;;;;;;;;;;;;;;;;5016646;28;19924;-73
2021/12/30 00:29:30;;;;;;;;;;;;;;;;;;5006976;28;19967;-66
2021/12/30 00:31:55;;;;;;;;;;;;;;;;;;5021109;28;20283;-71
2021/12/30 00:34:21;;;;;;;;;;;;;;;;;;4995629;28;19925;-65
2021/12/30 00:36:46;;;;;;;;;;;;;;;;;;5016732;28;19940;-69
2021/12/30 00:39:11;;;;;;;;;;;;;;;;;;5014839;28;19963;-66
2021/12/30 00:41:36;;;;;;;;;;;;;;;;;;5010056;28;19917;-65
2021/12/30 00:44:01;;;;;;;;;;;;;;;;;;5013712;28;19924;-71
2021/12/30 00:46:27;;;;;;;;;;;;;;;;;;5009654;28;19924;-71
2021/12/30 00:48:52;;;;;;;;;;;;;;;;;;5011227;28;19960;-75
2021/12/30 00:51:17;;;;;;;;;;;;;;;;;;5015389;28;19975;-70
2021/12/30 00:53:42;;;;;;;;;;;;;;;;;;5010319;28;20004;-71
2021/12/30 00:56:07;;;;;;;;;;;;;;;;;;5013891;28;19932;-73
2021/12/30 00:58:33;;;;;;;;;;;;;;;;;;5009314;28;20235;-73
2021/12/30 01:00:59;;;;;;;;;;;;;;;;;;5005238;28;20012;-73
2021/12/30 01:03:24;;;;;;;;;;;;;;;;;;5012478;28;20352;-71
2021/12/30 01:05:49;;;;;;;;;;;;;;;;;;5009835;28;20285;-68
2021/12/30 01:08:15;;;;;;;;;;;;;;;;;;5014716;28;19944;-72
2021/12/30 01:10:40;;;;;;;;;;;;;;;;;;5007773;28;19917;-77
2021/12/30 01:13:07;;;;;;;;;;;;;;;;;;5013606;28;20414;-74
2021/12/30 01:15:46;;;;;;;;;;;;;;;;;;5015459;28;19925;-72
2021/12/30 01:21:06;;;;;;;;;;;;;;;;;;5008731;28;19921;-73
2021/12/30 01:23:32;;;;;;;;;;;;;;;;;;5019255;28;20339;-70
2021/12/30 01:25:57;;;;;;;;;;;;;;;;;;5009490;28;19917;-68
2021/12/30 01:28:22;;;;;;;;;;;;;;;;;;5015187;28;19964;-71
2021/12/30 01:30:48;;;;;;;;;;;;;;;;;;5016926;28;20000;-64
2021/12/30 01:33:13;;;;;;;;;;;;;;;;;;5010314;28;19917;-69
2021/12/30 01:35:38;;;;;;;;;;;;;;;;;;5011452;28;19936;-74
2021/12/30 01:38:05;;;;;;;;;;;;;;;;;;5009616;28;20401;-65
2021/12/30 01:40:31;;;;;;;;;;;;;;;;;;5014681;28;19940;-66
2021/12/30 01:42:56;;;;;;;;;;;;;;;;;;5007370;28;20234;-68
2021/12/30 01:45:21;;;;;;;;;;;;;;;;;;5008141;28;19962;-69
2021/12/30 01:47:50;;;;;;;;;;;;;;;;;;5000446;28;19932;-67
2021/12/30 01:50:16;;;;;;;;;;;;;;;;;;5008368;28;20023;-67
2021/12/30 01:52:41;;;;;;;;;;;;;;;;;;5014570;28;20391;-74
2021/12/30 01:55:06;;;;;;;;;;;;;;;;;;5007066;28;20377;-71
2021/12/30 01:57:31;;;;;;;;;;;;;;;;;;5006123;28;20044;-74
2021/12/30 01:59:56;;;;;;;;;;;;;;;;;;5013308;28;20392;-64
2021/12/30 02:02:22;;;;;;;;;;;;;;;;;;5007612;28;19959;-66
2021/12/30 02:04:47;;;;;;;;;;;;;;;;;;5013109;28;19928;-75
2021/12/30 02:07:13;;;;;;;;;;;;;;;;;;5009283;28;19927;-71
2021/12/30 02:09:39;;;;;;;;;;;;;;;;;;5012100;28;19943;-68
2021/12/30 02:12:05;;;;;;;;;;;;;;;;;;5014981;28;19939;-70
2021/12/30 02:14:30;;;;;;;;;;;;;;;;;;5009304;28;20453;-69
2021/12/30 02:16:55;;;;;;;;;;;;;;;;;;5016781;28;19918;-72
2021/12/30 02:19:20;;;;;;;;;;;;;;;;;;5006977;28;20224;-68
2021/12/30 02:21:46;;;;;;;;;;;;;;;;;;5008913;28;19929;-72
2021/12/30 02:24:11;;;;;;;;;;;;;;;;;;5015925;28;20282;-68
2021/12/30 02:26:36;;;;;;;;;;;;;;;;;;5012667;28;20310;-67
2021/12/30 02:29:01;;;;;;;;;;;;;;;;;;5013532;28;19932;-64
2021/12/30 02:31:27;;;;;;;;;;;;;;;;;;5007394;28;20342;-71
2021/12/30 02:33:52;;;;;;;;;;;;;;;;;;5008530;28;19921;-71
2021/12/30 02:36:17;;;;;;;;;;;;;;;;;;5013158;28;20006;-70
2021/12/30 02:38:45;;;;;;;;;;;;;;;;;;5011498;28;19921;-70
2021/12/30 02:41:14;;;;;;;;;;;;;;;;;;5013839;28;19956;-69
2021/12/30 02:43:39;;;;;;;;;;;;;;;;;;5009985;28;20012;-65
2021/12/30 02:46:04;;;;;;;;;;;;;;;;;;5009593;28;20328;-70
2021/12/30 02:48:30;;;;;;;;;;;;;;;;;;5013716;28;20344;-63
2021/12/30 02:50:55;;;;;;;;;;;;;;;;;;5012039;28;19932;-68
2021/12/30 02:53:20;;;;;;;;;;;;;;;;;;5009922;28;20003;-72
2021/12/30 02:55:45;;;;;;;;;;;;;;;;;;5012578;28;20058;-71
2021/12/30 02:58:11;;;;;;;;;;;;;;;;;;5014431;28;19917;-67
2021/12/30 03:00:36;;;;;;;;;;;;;;;;;;5016314;28;19925;-78
2021/12/30 03:03:01;;;;;;;;;;;;;;;;;;5011726;28;20421;-68
2021/12/30 03:05:26;;;;;;;;;;;;;;;;;;5015551;28;19976;-71
2021/12/30 03:07:52;;;;;;;;;;;;;;;;;;5011115;28;20616;-66
2021/12/30 03:10:17;;;;;;;;;;;;;;;;;;5017715;28;20205;-72
2021/12/30 03:12:42;;;;;;;;;;;;;;;;;;5016549;28;19917;-65
2021/12/30 03:15:07;;;;;;;;;;;;;;;;;;5010578;28;20019;-76
2021/12/30 03:17:33;;;;;;;;;;;;;;;;;;5017410;28;19917;-72
2021/12/30 03:19:58;;;;;;;;;;;;;;;;;;5014056;28;19918;-67
2021/12/30 03:22:23;;;;;;;;;;;;;;;;;;5012628;28;20263;-69
2021/12/30 03:24:48;;;;;;;;;;;;;;;;;;5016256;28;20371;-67
2021/12/30 03:27:13;;;;;;;;;;;;;;;;;;5011181;28;19939;-75
2021/12/30 03:29:39;;;;;;;;;;;;;;;;;;5018123;28;19925;-73
2021/12/30 03:32:04;;;;;;;;;;;;;;;;;;5018145;28;19921;-83
2021/12/30 03:34:29;;;;;;;;;;;;;;;;;;5018642;28;20402;-69
2021/12/30 03:36:54;;;;;;;;;;;;;;;;;;5019439;28;19924;-69
2021/12/30 03:39:20;;;;;;;;;;;;;;;;;;5011208;28;19922;-70
2021/12/30 03:41:45;;;;;;;;;;;;;;;;;;5015336;28;19924;-73
2021/12/30 03:44:10;;;;;;;;;;;;;;;;;;5010333;28;19955;-66
2021/12/30 03:46:35;;;;;;;;;;;;;;;;;;5009773;28;20410;-77
2021/12/30 03:49:01;;;;;;;;;;;;;;;;;;5015592;28;19914;-68
2021/12/30 03:51:26;;;;;;;;;;;;;;;;;;5011482;28;19927;-67
2021/12/30 03:53:51;;;;;;;;;;;;;;;;;;5016957;28;19917;-74
2021/12/30 03:56:17;;;;;;;;;;;;;;;;;;4994618;28;19925;-70
2021/12/30 03:58:42;;;;;;;;;;;;;;;;;;5011555;28;20405;-71
2021/12/30 04:01:07;;;;;;;;;;;;;;;;;;5016757;28;20458;-73
2021/12/30 04:03:32;;;;;;;;;;;;;;;;;;5011085;28;19917;-68
2021/12/30 04:05:57;;;;;;;;;;;;;;;;;;5015708;28;19928;-65
2021/12/30 04:08:23;;;;;;;;;;;;;;;;;;5015145;28;20280;-70
2021/12/30 04:10:48;;;;;;;;;;;;;;;;;;5008100;28;19922;-73
2021/12/30 04:13:13;;;;;;;;;;;;;;;;;;5015735;28;20346;-65
2021/12/30 04:15:38;;;;;;;;;;;;;;;;;;5010531;28;20352;-74
2021/12/30 04:18:03;;;;;;;;;;;;;;;;;;5015788;28;20271;-68
2021/12/30 04:20:29;;;;;;;;;;;;;;;;;;5009897;28;19921;-66
2021/12/30 04:22:54;;;;;;;;;;;;;;;;;;5010985;28;20798;-73
2021/12/30 04:25:19;;;;;;;;;;;;;;;;;;5032826;28;20465;-74
2021/12/30 04:27:44;;;;;;;;;;;;;;;;;;5007609;28;19960;-72
2021/12/30 04:30:10;;;;;;;;;;;;;;;;;;5021181;28;20328;-69
2021/12/30 04:32:35;;;;;;;;;;;;;;;;;;5019420;28;19920;-66
2021/12/30 04:35:00;;;;;;;;;;;;;;;;;;5015703;28;19929;-65
2021/12/30 04:37:26;;;;;;;;;;;;;;;;;;5018483;28;19909;-70
2021/12/30 04:39:51;;;;;;;;;;;;;;;;;;5017470;28;19921;-65
2021/12/30 04:42:16;;;;;;;;;;;;;;;;;;5019943;28;19941;-65
2021/12/30 04:44:43;;;;;;;;;;;;;;;;;;5023209;28;20386;-74
2021/12/30 04:47:08;;;;;;;;;;;;;;;;;;5012392;28;19921;-70
2021/12/30 04:49:34;;;;;;;;;;;;;;;;;;5018061;28;19929;-69
2021/12/30 04:52:00;;;;;;;;;;;;;;;;;;5014475;28;19921;-76
2021/12/30 04:54:25;;;;;;;;;;;;;;;;;;5016470;28;20233;-71
2021/12/30 04:56:51;;;;;;;;;;;;;;;;;;5013907;28;19917;-70
2021/12/30 04:59:16;;;;;;;;;;;;;;;;;;5009983;28;19922;-65
2021/12/30 05:01:41;;;;;;;;;;;;;;;;;;5015818;28;20341;-69
2021/12/30 05:04:06;;;;;;;;;;;;;;;;;;5013595;28;19917;-69
2021/12/30 05:06:32;;;;;;;;;;;;;;;;;;5023061;28;19913;-66
2021/12/30 05:08:57;;;;;;;;;;;;;;;;;;5013531;28;20400;-73
2021/12/30 05:11:23;;;;;;;;;;;;;;;;;;5011895;28;19980;-69
2021/12/30 05:13:48;;;;;;;;;;;;;;;;;;5013064;28;20321;-71
2021/12/30 05:16:15;;;;;;;;;;;;;;;;;;5013729;28;20271;-74
2021/12/30 05:18:40;;;;;;;;;;;;;;;;;;5016668;28;19921;-71
2021/12/30 05:21:06;;;;;;;;;;;;;;;;;;5010025;28;19924;-70
2021/12/30 05:23:31;;;;;;;;;;;;;;;;;;5010901;28;20394;-67
2021/12/30 05:25:56;;;;;;;;;;;;;;;;;;5015182;28;19924;-66
2021/12/30 05:28:21;;;;;;;;;;;;;;;;;;5017289;28;19917;-71
2021/12/30 05:30:46;;;;;;;;;;;;;;;;;;5016257;28;19920;-72
2021/12/30 05:33:12;;;;;;;;;;;;;;;;;;5013388;28;19975;-68
2021/12/30 05:35:37;;;;;;;;;;;;;;;;;;5012480;28;19932;-71
2021/12/30 05:38:03;;;;;;;;;;;;;;;;;;5022620;28;19913;-64
2021/12/30 05:40:28;;;;;;;;;;;;;;;;;;5014022;28;19996;-70
2021/12/30 05:42:53;;;;;;;;;;;;;;;;;;5015977;28;19929;-70
2021/12/30 05:45:18;;;;;;;;;;;;;;;;;;5011818;28;20486;-66
2021/12/30 05:47:46;;;;;;;;;;;;;;;;;;5009358;28;20898;-65
2021/12/30 05:50:11;;;;;;;;;;;;;;;;;;5018367;28;20380;-70
2021/12/30 05:52:37;;;;;;;;;;;;;;;;;;5011786;28;19917;-69
2021/12/30 05:55:02;;;;;;;;;;;;;;;;;;5018833;28;19932;-66
2021/12/30 05:57:27;;;;;;;;;;;;;;;;;;5010666;28;20392;-71
2021/12/30 05:59:52;;;;;;;;;;;;;;;;;;5015921;28;20298;-72
2021/12/30 06:02:17;;;;;;;;;;;;;;;;;;5015224;28;19924;-67
2021/12/30 06:04:43;;;;;;;;;;;;;;;;;;5011086;28;19917;-76
2021/12/30 06:07:08;;;;;;;;;;;;;;;;;;5010599;28;19979;-69
2021/12/30 06:09:33;;;;;;;;;;;;;;;;;;5012814;28;19974;-68
2021/12/30 06:11:58;;;;;;;;;;;;;;;;;;5011861;28;20020;-73
2021/12/30 06:14:24;;;;;;;;;;;;;;;;;;5015675;28;19921;-70
2021/12/30 06:16:49;;;;;;;;;;;;;;;;;;5014368;28;20430;-68
2021/12/30 06:19:14;;;;;;;;;;;;;;;;;;5015181;28;19917;-72
2021/12/30 06:21:39;;;;;;;;;;;;;;;;;;5012541;28;19917;-65
2021/12/30 06:24:04;;;;;;;;;;;;;;;;;;5015756;28;19925;-75
2021/12/30 06:26:30;;;;;;;;;;;;;;;;;;5017814;28;19921;-65
2021/12/30 06:28:55;;;;;;;;;;;;;;;;;;5013198;28;19917;-68
2021/12/30 06:31:20;;;;;;;;;;;;;;;;;;5020940;28;19928;-64
2021/12/30 06:33:45;;;;;;;;;;;;;;;;;;5021866;28;19918;-65
2021/12/30 06:36:11;;;;;;;;;;;;;;;;;;5016360;28;20878;-65
2021/12/30 06:38:36;;;;;;;;;;;;;;;;;;5020221;28;20484;-66
2021/12/30 06:41:01;;;;;;;;;;;;;;;;;;5020834;28;19917;-68
2021/12/30 06:43:26;;;;;;;;;;;;;;;;;;5016454;28;19924;-65
2021/12/30 06:45:52;;;;;;;;;;;;;;;;;;5011016;28;19924;-68
2021/12/30 06:48:17;;;;;;;;;;;;;;;;;;5016722;28;20321;-69
2021/12/30 06:50:51;;;;;;;;;;;;;;;;;;5022822;28;20000;-65
2021/12/30 06:53:16;;;;;;;;;;;;;;;;;;5011013;28;19984;-69
2021/12/30 06:55:42;;;;;;;;;;;;;;;;;;5015865;28;20345;-69
2021/12/30 06:58:07;;;;;;;;;;;;;;;;;;5013546;28;20381;-73
2021/12/30 07:00:32;;;;;;;;;;;;;;;;;;5016963;28;19968;-66
2021/12/30 07:02:57;;;;;;;;;;;;;;;;;;5022783;28;19917;-74
2021/12/30 07:05:23;;;;;;;;;;;;;;;;;;5013225;28;19917;-69
2021/12/30 07:07:48;;;;;;;;;;;;;;;;;;5004148;28;19924;-71
2021/12/30 07:10:13;;;;;;;;;;;;;;;;;;5016744;28;19921;-65
2021/12/30 07:12:38;;;;;;;;;;;;;;;;;;5013861;28;20389;-68
2021/12/30 07:15:04;;;;;;;;;;;;;;;;;;5025260;28;19928;-72
2021/12/30 07:17:31;;;;;;;;;;;;;;;;;;5013143;28;19918;-69
2021/12/30 07:19:56;;;;;;;;;;;;;;;;;;5016948;28;20338;-70
2021/12/30 07:22:21;;;;;;;;;;;;;;;;;;5011824;28;20013;-65
2021/12/30 07:24:47;;;;;;;;;;;;;;;;;;5012949;28;20826;-69
2021/12/30 07:27:12;;;;;;;;;;;;;;;;;;5016677;28;20279;-73
2021/12/30 07:29:37;;;;;;;;;;;;;;;;;;5010559;28;19971;-67
2021/12/30 07:32:02;;;;;;;;;;;;;;;;;;5016099;28;20000;-75
2021/12/30 07:34:27;;;;;;;;;;;;;;;;;;5012401;28;20378;-71
2021/12/30 07:36:53;;;;;;;;;;;;;;;;;;5011382;28;20384;-75
2021/12/30 07:39:18;;;;;;;;;;;;;;;;;;5021725;28;19941;-72
2021/12/30 07:41:43;;;;;;;;;;;;;;;;;;5013433;28;20389;-65
2021/12/30 07:44:09;;;;;;;;;;;;;;;;;;5018632;28;19917;-71
2021/12/30 07:46:34;;;;;;;;;;;;;;;;;;5012148;28;19917;-65
2021/12/30 07:48:59;;;;;;;;;;;;;;;;;;5012345;28;20350;-71
2021/12/30 07:51:25;;;;;;;;;;;;;;;;;;5019198;28;20103;-74
2021/12/30 07:53:50;;;;;;;;;;;;;;;;;;5012991;28;19945;-66
2021/12/30 07:56:15;;;;;;;;;;;;;;;;;;5014816;28;19925;-72
2021/12/30 07:58:40;;;;;;;;;;;;;;;;;;5013190;28;20579;-67
2021/12/30 08:01:06;;;;;;;;;;;;;;;;;;5019939;28;19917;-68
2021/12/30 08:03:31;;;;;;;;;;;;;;;;;;5015890;28;19918;-70
2021/12/30 08:05:56;;;;;;;;;;;;;;;;;;5012952;28;19924;-65
2021/12/30 08:08:21;;;;;;;;;;;;;;;;;;5018756;28;20036;-70
2021/12/30 08:10:46;;;;;;;;;;;;;;;;;;5010641;28;19924;-69
2021/12/30 08:13:12;;;;;;;;;;;;;;;;;;5012315;28;19924;-68
2021/12/30 08:15:37;;;;;;;;;;;;;;;;;;5001668;28;19963;-73
2021/12/30 08:18:03;;;;;;;;;;;;;;;;;;5012877;28;20298;-68
2021/12/30 08:20:28;;;;;;;;;;;;;;;;;;5018790;28;20332;-65
2021/12/30 08:22:53;;;;;;;;;;;;;;;;;;5013957;28;20350;-74
2021/12/30 08:25:18;;;;;;;;;;;;;;;;;;5016429;28;20337;-66
2021/12/30 08:27:44;;;;;;;;;;;;;;;;;;5014755;28;19919;-74
2021/12/30 08:30:09;;;;;;;;;;;;;;;;;;5013482;28;20362;-67
2021/12/30 08:32:34;;;;;;;;;;;;;;;;;;5019634;28;19917;-72
2021/12/30 08:34:59;;;;;;;;;;;;;;;;;;5011571;28;20336;-70
2021/12/30 08:37:24;;;;;;;;;;;;;;;;;;5015768;28;20670;-65
2021/12/30 08:39:50;;;;;;;;;;;;;;;;;;5015465;28;19921;-75
2021/12/30 08:42:15;;;;;;;;;;;;;;;;;;5011030;28;19921;-65
2021/12/30 08:44:40;;;;;;;;;;;;;;;;;;5015232;28;19918;-70
2021/12/30 08:47:05;;;;;;;;;;;;;;;;;;5011476;28;19925;-66
2021/12/30 08:49:31;;;;;;;;;;;;;;;;;;5010141;28;19996;-68
2021/12/30 08:51:56;;;;;;;;;;;;;;;;;;5013795;28;19917;-71
2021/12/30 08:54:21;;;;;;;;;;;;;;;;;;5012878;28;19975;-69
2021/12/30 08:56:46;;;;;;;;;;;;;;;;;;5013961;28;19924;-69
2021/12/30 08:59:11;;;;;;;;;;;;;;;;;;5008183;28;19925;-65
2021/12/30 09:01:39;;;;;;;;;;;;;;;;;;5006986;28;19913;-70
2021/12/30 09:04:04;;;;;;;;;;;;;;;;;;5013782;28;19921;-66
2021/12/30 09:06:29;;;;;;;;;;;;;;;;;;5009727;28;20172;-68
2021/12/30 09:08:54;;;;;;;;;;;;;;;;;;5013423;28;19925;-77
2021/12/30 09:11:19;;;;;;;;;;;;;;;;;;5008243;28;19925;-67
2021/12/30 09:13:45;;;;;;;;;;;;;;;;;;5007533;28;19953;-67
2021/12/30 09:16:10;;;;;;;;;;;;;;;;;;5014210;28;20362;-65
2021/12/30 09:18:35;;;;;;;;;;;;;;;;;;5010288;28;19917;-66
2021/12/30 09:21:00;;;;;;;;;;;;;;;;;;5013385;28;19917;-76
2021/12/30 09:23:25;;;;;;;;;;;;;;;;;;5008743;28;19917;-71
2021/12/30 09:25:53;;;;;;;;;;;;;;;;;;5008377;28;20370;-72
2021/12/30 09:28:18;;;;;;;;;;;;;;;;;;5018884;28;19955;-73
2021/12/30 09:30:45;;;;;;;;;;;;;;;;;;5011272;28;19956;-65
2021/12/30 09:33:15;;;;;;;;;;;;;;;;;;4999733;28;20433;-72
2021/12/30 09:35:40;;;;;;;;;;;;;;;;;;5007696;28;20149;-70
2021/12/30 09:38:05;;;;;;;;;;;;;;;;;;5006744;28;19917;-77
2021/12/30 09:40:30;;;;;;;;;;;;;;;;;;5017457;28;19924;-66
2021/12/30 09:43:01;;;;;;;;;;;;;;;;;;5009938;28;19913;-69
2021/12/30 09:45:26;;;;;;;;;;;;;;;;;;5018540;28;20436;-64
2021/12/30 09:47:51;;;;;;;;;;;;;;;;;;5012482;28;19940;-73
2021/12/30 09:50:16;;;;;;;;;;;;;;;;;;5005557;28;19995;-66
2021/12/30 09:52:42;;;;;;;;;;;;;;;;;;5013693;28;19974;-69
2021/12/30 09:55:07;;;;;;;;;;;;;;;;;;4994653;28;20008;-66
2021/12/30 09:57:32;;;;;;;;;;;;;;;;;;5012163;28;19960;-67
2021/12/30 09:59:57;;;;;;;;;;;;;;;;;;5007355;28;19960;-72
2021/12/30 10:02:23;;;;;;;;;;;;;;;;;;5010921;28;19917;-68
2021/12/30 10:04:48;;;;;;;;;;;;;;;;;;5011562;28;19921;-69
2021/12/30 10:07:13;;;;;;;;;;;;;;;;;;5014784;28;19924;-70
2021/12/30 10:09:53;;;;;;;;;;;;;;;;;;5017263;28;19921;-73
2021/12/30 10:12:18;;;;;;;;;;;;;;;;;;5011593;28;20012;-70
2021/12/30 10:14:43;;;;;;;;;;;;;;;;;;5005781;28;19929;-70
2021/12/30 10:17:08;;;;;;;;;;;;;;;;;;5010862;28;20416;-72
2021/12/30 10:19:34;;;;;;;;;;;;;;;;;;5007037;28;19914;-71
2021/12/30 10:21:59;;;;;;;;;;;;;;;;;;5013490;28;19919;-68
2021/12/30 10:24:24;;;;;;;;;;;;;;;;;;5010223;28;19924;-74
2021/12/30 10:26:49;;;;;;;;;;;;;;;;;;5008434;28;19917;-71
2021/12/30 10:29:14;;;;;;;;;;;;;;;;;;5009947;28;19925;-65
2021/12/30 10:31:40;;;;;;;;;;;;;;;;;;5004691;28;20039;-68
2021/12/30 10:34:05;;;;;;;;;;;;;;;;;;5011936;28;20137;-70
2021/12/30 10:36:30;;;;;;;;;;;;;;;;;;5011475;28;19929;-71
2021/12/30 10:38:55;;;;;;;;;;;;;;;;;;5006975;28;20255;-65
2021/12/30 10:41:21;;;;;;;;;;;;;;;;;;5019551;28;20032;-67
2021/12/30 10:43:47;;;;;;;;;;;;;;;;;;5011399;28;19975;-79
2021/12/30 10:46:12;;;;;;;;;;;;;;;;;;5004944;28;19918;-72
2021/12/30 10:48:37;;;;;;;;;;;;;;;;;;5014039;28;19921;-65
2021/12/30 10:51:02;;;;;;;;;;;;;;;;;;5004943;28;20002;-70
2021/12/30 10:53:30;;;;;;;;;;;;;;;;;;5019138;28;19918;-68
2021/12/30 10:55:56;;;;;;;;;;;;;;;;;;5005686;28;19967;-68
2021/12/30 10:58:21;;;;;;;;;;;;;;;;;;5008049;28;19921;-72
2021/12/30 11:00:46;;;;;;;;;;;;;;;;;;5013083;28;19932;-69
2021/12/30 11:03:11;;;;;;;;;;;;;;;;;;5002721;28;19924;-67
2021/12/30 11:05:36;;;;;;;;;;;;;;;;;;5014256;28;19954;-68
2021/12/30 11:08:02;;;;;;;;;;;;;;;;;;5007039;28;19921;-66
2021/12/30 11:10:27;;;;;;;;;;;;;;;;;;5007334;28;19917;-73
2021/12/30 11:12:52;;;;;;;;;;;;;;;;;;5011239;28;19917;-74
2021/12/30 11:15:17;;;;;;;;;;;;;;;;;;5007795;28;20319;-70
2021/12/30 11:17:42;;;;;;;;;;;;;;;;;;5019556;28;19918;-68
2021/12/30 11:20:08;;;;;;;;;;;;;;;;;;5006210;28;19925;-70
2021/12/30 11:22:35;;;;;;;;;;;;;;;;;;5011517;28;19924;-74
2021/12/30 11:25:00;;;;;;;;;;;;;;;;;;5017812;28;20458;-69
2021/12/30 11:27:25;;;;;;;;;;;;;;;;;;5009705;28;19918;-73
2021/12/30 11:29:51;;;;;;;;;;;;;;;;;;5016365;28;19990;-65
2021/12/30 11:32:17;;;;;;;;;;;;;;;;;;5014795;28;19917;-68
2021/12/30 11:34:43;;;;;;;;;;;;;;;;;;5012363;28;19913;-67
2021/12/30 11:37:08;;;;;;;;;;;;;;;;;;5021516;28;19924;-67
2021/12/30 11:39:33;;;;;;;;;;;;;;;;;;5009452;28;20370;-67
2021/12/30 11:41:58;;;;;;;;;;;;;;;;;;5005068;28;19922;-73
2021/12/30 11:44:24;;;;;;;;;;;;;;;;;;5008218;28;19917;-72
2021/12/30 11:46:50;;;;;;;;;;;;;;;;;;5008994;28;20275;-65
2021/12/30 11:49:16;;;;;;;;;;;;;;;;;;5014208;28;19918;-71
2021/12/30 11:51:41;;;;;;;;;;;;;;;;;;5017171;28;19999;-67
2021/12/30 11:54:06;;;;;;;;;;;;;;;;;;5016224;28;19925;-70
2021/12/30 11:56:31;;;;;;;;;;;;;;;;;;5013825;28;19964;-66
2021/12/30 11:58:57;;;;;;;;;;;;;;;;;;5008137;28;82468;-65
2021/12/30 12:02:09;;;;;;;;;;;;;;;;;;5125894;27;20372;-68
2021/12/30 12:04:34;;;;;;;;;;;;;;;;;;5102738;28;20341;-67
2021/12/30 12:07:00;;;;;;;;;;;;;;;;;;5103822;28;20302;-64
2021/12/30 12:09:27;;;;;;;;;;;;;;;;;;5110857;28;20266;-66
2021/12/30 12:11:52;;;;;;;;;;;;;;;;;;5102405;28;19958;-72
2021/12/30 12:14:18;;;;;;;;;;;;;;;;;;5109323;28;19919;-71
2021/12/30 12:16:43;;;;;;;;;;;;;;;;;;5104425;28;20273;-66
2021/12/30 12:19:08;;;;;;;;;;;;;;;;;;5111741;28;19942;-70
2021/12/30 12:21:33;;;;;;;;;;;;;;;;;;5116235;27;19919;-66
2021/12/30 12:23:58;;;;;;;;;;;;;;;;;;5100668;28;19967;-69
2021/12/30 12:26:24;;;;;;;;;;;;;;;;;;5110476;28;19916;-67
2021/12/30 12:28:49;;;;;;;;;;;;;;;;;;5103553;28;19915;-70
2021/12/30 12:31:14;;;;;;;;;;;;;;;;;;5104440;28;19948;-67
2021/12/30 12:33:39;;;;;;;;;;;;;;;;;;5108884;28;20537;-70
2021/12/30 12:36:05;;;;;;;;;;;;;;;;;;5102368;28;20325;-68
2021/12/30 12:38:30;;;;;;;;;;;;;;;;;;5106754;28;19916;-69
2021/12/30 12:40:55;;;;;;;;;;;;;;;;;;5104833;28;20318;-72
2021/12/30 12:43:20;;;;;;;;;;;;;;;;;;5103933;28;20291;-67
2021/12/30 12:45:45;;;;;;;;;;;;;;;;;;5109500;28;19915;-67
2021/12/30 12:48:11;;;;;;;;;;;;;;;;;;5102846;28;19916;-72
2021/12/30 12:50:36;;;;;;;;;;;;;;;;;;5107708;27;19931;-70
2021/12/30 12:53:01;;;;;;;;;;;;;;;;;;5105237;28;19989;-67
2021/12/30 12:55:26;;;;;;;;;;;;;;;;;;5103516;27;19927;-65
2021/12/30 12:57:51;;;;;;;;;;;;;;;;;;5111987;28;20024;-71
2021/12/30 13:00:17;;;;;;;;;;;;;;;;;;5103652;28;20080;-71
2021/12/30 13:02:42;;;;;;;;;;;;;;;;;;5108657;27;20434;-71
2021/12/30 13:05:07;;;;;;;;;;;;;;;;;;5103437;28;20295;-69
2021/12/30 13:07:32;;;;;;;;;;;;;;;;;;5104300;28;20252;-71
2021/12/30 13:09:58;;;;;;;;;;;;;;;;;;5111113;28;19923;-69
2021/12/30 13:12:23;;;;;;;;;;;;;;;;;;5098774;28;19926;-69
2021/12/30 13:14:48;;;;;;;;;;;;;;;;;;5099281;28;19923;-68
2021/12/30 13:17:13;;;;;;;;;;;;;;;;;;5090876;28;20041;-70
2021/12/30 13:19:39;;;;;;;;;;;;;;;;;;5091981;28;19916;-69
2021/12/30 13:22:04;;;;;;;;;;;;;;;;;;5096856;28;20331;-68
2021/12/30 13:24:29;;;;;;;;;;;;;;;;;;5092143;28;20003;-66
2021/12/30 13:26:55;;;;;;;;;;;;;;;;;;5094228;28;20125;-69
2021/12/30 13:29:20;;;;;;;;;;;;;;;;;;5085010;28;19963;-71
2021/12/30 13:31:45;;;;;;;;;;;;;;;;;;5096929;28;19912;-65
2021/12/30 13:34:10;;;;;;;;;;;;;;;;;;5094911;28;19919;-72
2021/12/30 13:36:35;;;;;;;;;;;;;;;;;;5091253;28;19994;-65
2021/12/30 13:39:01;;;;;;;;;;;;;;;;;;5096510;27;19916;-67
2021/12/30 13:41:26;;;;;;;;;;;;;;;;;;5088735;28;19924;-68
2021/12/30 13:43:51;;;;;;;;;;;;;;;;;;5087868;28;19947;-72
2021/12/30 13:46:16;;;;;;;;;;;;;;;;;;5090510;28;19916;-68
2021/12/30 13:48:43;;;;;;;;;;;;;;;;;;5088668;28;19919;-67
2021/12/30 13:51:10;;;;;;;;;;;;;;;;;;5095008;27;19960;-69
2021/12/30 13:53:35;;;;;;;;;;;;;;;;;;5090752;28;19977;-68
2021/12/30 13:56:00;;;;;;;;;;;;;;;;;;5090326;28;20392;-71
2021/12/30 13:58:26;;;;;;;;;;;;;;;;;;5093918;28;19916;-68
2021/12/30 14:00:51;;;;;;;;;;;;;;;;;;5089846;28;20275;-71
2021/12/30 14:03:16;;;;;;;;;;;;;;;;;;5096046;28;19915;-70
2021/12/30 14:05:44;;;;;;;;;;;;;;;;;;5090184;28;19993;-67
2021/12/30 14:08:10;;;;;;;;;;;;;;;;;;5089082;28;20473;-65
2021/12/30 14:10:35;;;;;;;;;;;;;;;;;;5095696;28;20295;-71
2021/12/30 14:13:00;;;;;;;;;;;;;;;;;;5089021;27;19999;-66
2021/12/30 14:15:25;;;;;;;;;;;;;;;;;;5093302;27;20396;-68
2021/12/30 14:17:51;;;;;;;;;;;;;;;;;;5090809;28;19915;-74
2021/12/30 14:20:16;;;;;;;;;;;;;;;;;;5087264;28;19920;-66
2021/12/30 14:22:41;;;;;;;;;;;;;;;;;;5090996;27;20006;-71
2021/12/30 14:25:11;;;;;;;;;;;;;;;;;;5086762;28;19916;-66
2021/12/30 14:27:36;;;;;;;;;;;;;;;;;;5091448;28;20023;-69
2021/12/30 14:30:01;;;;;;;;;;;;;;;;;;5073238;28;20033;-71
2021/12/30 14:32:26;;;;;;;;;;;;;;;;;;5086438;27;19936;-71
2021/12/30 14:34:51;;;;;;;;;;;;;;;;;;5090935;28;19916;-70
2021/12/30 14:37:19;;;;;;;;;;;;;;;;;;5087992;28;19948;-73
2021/12/30 14:39:44;;;;;;;;;;;;;;;;;;5090235;28;20338;-64
2021/12/30 14:42:09;;;;;;;;;;;;;;;;;;5082711;28;19929;-67
2021/12/30 14:44:35;;;;;;;;;;;;;;;;;;5063976;28;20571;-65
2021/12/30 14:47:00;;;;;;;;;;;;;;;;;;5070782;28;20362;-68
2021/12/30 14:49:26;;;;;;;;;;;;;;;;;;5066657;28;20497;-67
2021/12/30 14:51:51;;;;;;;;;;;;;;;;;;5077795;28;19916;-67
2021/12/30 14:54:16;;;;;;;;;;;;;;;;;;5069510;28;19919;-65
2021/12/30 14:56:42;;;;;;;;;;;;;;;;;;5073298;28;20241;-66
2021/12/30 14:59:07;;;;;;;;;;;;;;;;;;5082197;28;19916;-65
2021/12/30 15:01:32;;;;;;;;;;;;;;;;;;5063584;28;19928;-66
2021/12/30 15:03:58;;;;;;;;;;;;;;;;;;5077410;28;19952;-72
2021/12/30 15:06:23;;;;;;;;;;;;;;;;;;5062612;28;19955;-66
2021/12/30 15:08:49;;;;;;;;;;;;;;;;;;5066988;28;19916;-67
2021/12/30 15:11:14;;;;;;;;;;;;;;;;;;5070975;28;19915;-70
2021/12/30 15:13:39;;;;;;;;;;;;;;;;;;5063574;28;19951;-67
2021/12/30 15:16:04;;;;;;;;;;;;;;;;;;5074112;28;19916;-68
2021/12/30 15:18:29;;;;;;;;;;;;;;;;;;5068184;28;19917;-64
2021/12/30 15:20:55;;;;;;;;;;;;;;;;;;5069133;28;19943;-66
2021/12/30 15:23:20;;;;;;;;;;;;;;;;;;5071881;28;20809;-71
2021/12/30 15:25:45;;;;;;;;;;;;;;;;;;5066167;28;19916;-70
2021/12/30 15:28:10;;;;;;;;;;;;;;;;;;5070262;28;19923;-66
2021/12/30 15:30:36;;;;;;;;;;;;;;;;;;5066645;28;20339;-70
2021/12/30 15:33:02;;;;;;;;;;;;;;;;;;5071861;28;19920;-67
2021/12/30 15:35:27;;;;;;;;;;;;;;;;;;5071723;28;20394;-73
2021/12/30 15:37:52;;;;;;;;;;;;;;;;;;5064297;28;19916;-72
2021/12/30 15:40:17;;;;;;;;;;;;;;;;;;5068931;28;19927;-69
2021/12/30 15:42:43;;;;;;;;;;;;;;;;;;5064300;28;19928;-71
2021/12/30 15:45:08;;;;;;;;;;;;;;;;;;5063706;28;20324;-67
2021/12/30 15:47:33;;;;;;;;;;;;;;;;;;5070591;28;20029;-66
2021/12/30 15:49:58;;;;;;;;;;;;;;;;;;5064928;28;19916;-68
2021/12/30 15:52:24;;;;;;;;;;;;;;;;;;5075735;28;20195;-72
2021/12/30 15:54:50;;;;;;;;;;;;;;;;;;5067129;28;20242;-72
2021/12/30 15:57:15;;;;;;;;;;;;;;;;;;5061636;28;19917;-73
2021/12/30 15:59:41;;;;;;;;;;;;;;;;;;5080342;28;19916;-72
2021/12/30 16:02:09;;;;;;;;;;;;;;;;;;5066292;28;20337;-68
2021/12/30 16:04:34;;;;;;;;;;;;;;;;;;5073753;28;19927;-67
2021/12/30 16:07:02;;;;;;;;;;;;;;;;;;5063927;28;19916;-72
2021/12/30 16:09:27;;;;;;;;;;;;;;;;;;5067767;28;19912;-71
2021/12/30 16:11:52;;;;;;;;;;;;;;;;;;5073284;28;20376;-67
2021/12/30 16:14:17;;;;;;;;;;;;;;;;;;5067455;28;19916;-71
2021/12/30 16:16:42;;;;;;;;;;;;;;;;;;5071362;28;20755;-73
2021/12/30 16:19:08;;;;;;;;;;;;;;;;;;5063999;28;19923;-75
2021/12/30 16:21:33;;;;;;;;;;;;;;;;;;5073509;28;19924;-67
2021/12/30 16:23:58;;;;;;;;;;;;;;;;;;5071901;28;19916;-73
2021/12/30 16:26:24;;;;;;;;;;;;;;;;;;5069958;28;20329;-72
2021/12/30 16:28:49;;;;;;;;;;;;;;;;;;5073532;28;19912;-73
2021/12/30 16:31:14;;;;;;;;;;;;;;;;;;5066211;28;19916;-70
2021/12/30 16:33:39;;;;;;;;;;;;;;;;;;5065317;28;19916;-69
2021/12/30 16:36:05;;;;;;;;;;;;;;;;;;5073007;28;19924;-66